Time;durP1;ratioP1;P1;durP2;ratioP2;P2;SDS_P1;SDS_P2;PMS_P1;PMS_P2;Temp;Humidity;BMP_temperature;BMP_pressure;BME280_temperature;BME280_humidity;BME280_pressure;Samples;Min_cycle;Max_cycle;Signal;HPM_P1;HPM_P2
2021/11/23 00:00:21;;;;;;;6.62;3.45;;;;;;;2.37;81.07;101243.84;2897836;82;20987;-72
2021/11/23 00:04:24;;;;;;;8.98;4.47;;;;;;;2.23;81.54;101251.30;2897426;82;21066;-73
2021/11/23 00:08:26;;;;;;;7.00;3.65;;;;;;;2.02;82.41;101258.93;2843323;83;21080;-72
2021/11/23 00:12:27;;;;;;;5.55;3.55;;;;;;;1.94;83.03;101264.84;2867306;83;20994;-73
2021/11/23 00:16:29;;;;;;;4.35;3.47;;;;;;;1.87;83.25;101262.02;2897387;81;21030;-73
2021/11/23 00:20:32;;;;;;;13.25;3.60;;;;;;;1.85;83.42;101258.11;2897840;82;21023;-73
2021/11/23 00:24:35;;;;;;;7.17;3.45;;;;;;;1.90;83.03;101255.35;2893535;82;21007;-74
2021/11/23 00:28:36;;;;;;;6.60;4.12;;;;;;;1.96;82.72;101258.66;2964678;80;21065;-74
2021/11/23 00:32:38;;;;;;;4.50;3.67;;;;;;;2.01;82.42;101271.64;2964821;80;21557;-73
2021/11/23 00:36:41;;;;;;;8.35;4.28;;;;;;;2.07;82.07;101283.73;2964886;80;21519;-72
2021/11/23 00:40:43;;;;;;;6.53;4.97;;;;;;;2.09;81.80;101280.14;2964913;80;21566;-73
2021/11/23 00:44:45;;;;;;;4.78;3.83;;;;;;;2.06;81.85;101277.61;2964990;80;21002;-74
2021/11/23 00:48:46;;;;;;;8.13;4.42;;;;;;;2.08;81.69;101273.64;2965033;80;20966;-73
2021/11/23 00:52:48;;;;;;;5.47;2.95;;;;;;;2.12;81.33;101259.51;2964678;80;21053;-73
2021/11/23 00:56:50;;;;;;;7.12;3.67;;;;;;;2.18;81.24;101257.16;2964696;80;21565;-72
2021/11/23 01:00:52;;;;;;;6.03;3.87;;;;;;;2.20;80.90;101260.58;2907589;82;20995;-74
2021/11/23 01:04:53;;;;;;;8.00;3.65;;;;;;;2.24;80.63;101259.58;2872120;83;21136;-74
2021/11/23 01:08:55;;;;;;;5.55;2.87;;;;;;;2.30;80.38;101251.50;2964932;80;21037;-73
2021/11/23 01:12:57;;;;;;;4.05;3.65;;;;;;;2.35;79.79;101256.14;2964813;80;21021;-73
2021/11/23 01:16:59;;;;;;;9.20;4.58;;;;;;;2.37;79.55;101249.53;2964616;80;20986;-74
2021/11/23 01:21:01;;;;;;;11.75;3.15;;;;;;;2.36;79.40;101247.82;2965020;80;21037;-74
2021/11/23 01:25:05;;;;;;;6.87;5.35;;;;;;;2.34;79.34;101247.86;2957821;80;21055;-73
2021/11/23 01:29:07;;;;;;;9.83;6.05;;;;;;;2.30;79.59;101235.74;2856684;83;21454;-73
2021/11/23 01:33:09;;;;;;;10.80;5.25;;;;;;;2.28;79.71;101237.56;2856765;83;21045;-74
2021/11/23 01:37:12;;;;;;;24.50;5.22;;;;;;;2.26;79.94;101239.38;2856399;83;21454;-74
2021/11/23 01:41:13;;;;;;;4.58;2.62;;;;;;;2.21;80.11;101232.95;2856647;83;21053;-73
2021/11/23 01:45:15;;;;;;;4.90;2.72;;;;;;;2.19;80.21;101239.18;2856844;83;20990;-74
2021/11/23 01:49:17;;;;;;;4.67;2.80;;;;;;;2.17;80.28;101239.69;2857012;83;21057;-73
2021/11/23 01:53:19;;;;;;;2.77;2.45;;;;;;;2.20;80.34;101236.95;2856623;83;20998;-73
2021/11/23 01:57:21;;;;;;;4.30;2.80;;;;;;;2.20;80.20;101239.58;2832405;83;20974;-72
2021/11/23 02:01:23;;;;;;;4.85;2.85;;;;;;;2.24;80.05;101245.98;2856864;83;21033;-74
2021/11/23 02:05:25;;;;;;;4.83;4.40;;;;;;;2.26;79.50;101244.63;2857047;83;21608;-74
2021/11/23 02:09:27;;;;;;;6.50;2.52;;;;;;;2.22;79.49;101240.39;2856712;83;21005;-73
2021/11/23 02:13:29;;;;;;;4.83;3.22;;;;;;;2.09;79.47;101231.58;2856631;83;21049;-73
2021/11/23 02:17:31;;;;;;;4.20;2.72;;;;;;;2.04;79.79;101239.18;2856612;83;21042;-73
2021/11/23 02:21:33;;;;;;;6.12;3.20;;;;;;;2.05;80.07;101243.52;2856751;83;21010;-74
2021/11/23 02:25:35;;;;;;;6.85;3.45;;;;;;;2.06;80.30;101243.48;2861360;80;21048;-74
2021/11/23 02:29:37;;;;;;;6.92;4.33;;;;;;;2.07;80.70;101249.61;2882903;82;21044;-73
2021/11/23 02:33:40;;;;;;;9.30;4.05;;;;;;;2.07;80.94;101246.52;2882828;82;21600;-74
2021/11/23 02:37:48;;;;;;;8.00;5.50;;;;;;;2.11;81.01;101252.06;2882717;82;21001;-74
2021/11/23 02:41:50;;;;;;;7.28;4.20;;;;;;;2.11;81.23;101253.38;2882790;82;20989;-72
2021/11/23 02:45:53;;;;;;;5.50;4.25;;;;;;;2.11;81.23;101252.06;2882904;82;20965;-72
2021/11/23 02:49:54;;;;;;;3.33;3.00;;;;;;;2.10;81.41;101251.66;2882939;82;20989;-73
2021/11/23 02:53:56;;;;;;;9.55;4.53;;;;;;;2.04;81.62;101247.93;2882639;82;21048;-74
2021/11/23 02:57:58;;;;;;;4.92;4.30;;;;;;;1.95;81.99;101245.12;2882733;82;21051;-73
2021/11/23 03:02:00;;;;;;;5.58;4.37;;;;;;;1.93;82.16;101248.70;2882340;81;21104;-73
2021/11/23 03:06:02;;;;;;;6.95;2.95;;;;;;;1.89;82.35;101254.52;2882503;82;21600;-73
2021/11/23 03:10:08;;;;;;;7.58;3.80;;;;;;;1.95;82.35;101265.25;2883108;82;21005;-73
2021/11/23 03:14:10;;;;;;;12.20;3.95;;;;;;;1.96;82.33;101257.34;2882989;82;21036;-74
2021/11/23 03:18:12;;;;;;;6.17;3.10;;;;;;;1.92;82.39;101252.23;2882951;82;21013;-73
2021/11/23 03:22:15;;;;;;;4.58;3.62;;;;;;;1.88;82.57;101250.17;2882716;82;21016;-73
2021/11/23 03:26:17;;;;;;;5.60;3.27;;;;;;;1.87;82.62;101244.95;2882641;80;21092;-72
2021/11/23 03:30:24;;;;;;;4.53;3.08;;;;;;;1.87;82.60;101248.89;2882675;82;21021;-72
2021/11/23 03:34:26;;;;;;;6.75;2.92;;;;;;;1.86;82.63;101249.33;2883078;82;21040;-73
2021/11/23 03:38:28;;;;;;;4.75;3.33;;;;;;;1.89;82.37;101240.52;2883463;82;21025;-72
2021/11/23 03:42:30;;;;;;;10.60;2.75;;;;;;;1.91;82.16;101241.33;2883388;82;20974;-72
2021/11/23 03:46:32;;;;;;;5.83;3.42;;;;;;;1.96;82.11;101236.78;2882946;82;21056;-72
2021/11/23 03:50:34;;;;;;;4.47;3.52;;;;;;;2.00;81.86;101238.44;2882909;82;21589;-74
2021/11/23 03:54:36;;;;;;;4.85;2.55;;;;;;;1.96;81.86;101228.91;2882766;82;21020;-72
2021/11/23 03:58:38;;;;;;;3.80;2.37;;;;;;;1.96;82.12;101229.79;2882524;82;21021;-74
2021/11/23 04:02:42;;;;;;;5.25;2.47;;;;;;;1.95;82.28;101228.51;2882783;82;20988;-74
2021/11/23 04:06:43;;;;;;;4.28;2.95;;;;;;;1.91;82.47;101226.45;2880790;82;21012;-70
2021/11/23 04:10:45;;;;;;;6.33;3.27;;;;;;;1.88;82.71;101217.81;2880085;82;21001;-73
2021/11/23 04:14:47;;;;;;;4.70;2.95;;;;;;;1.85;83.00;101220.94;2880435;82;21009;-75
2021/11/23 04:18:48;;;;;;;3.35;2.50;;;;;;;1.84;82.81;101219.66;2879796;82;21072;-75
2021/11/23 04:22:51;;;;;;;4.87;2.77;;;;;;;1.85;82.74;101218.75;2880560;82;20989;-78
2021/11/23 04:26:53;;;;;;;40.28;35.95;;;;;;;1.87;82.76;101214.34;2881448;81;21411;-72
2021/11/23 04:30:55;;;;;;;4.22;2.40;;;;;;;1.84;82.82;101200.85;2873265;82;21053;-72
2021/11/23 04:34:57;;;;;;;6.25;3.12;;;;;;;1.75;82.86;101201.59;2873065;82;21069;-71
2021/11/23 04:38:59;;;;;;;2.33;2.22;;;;;;;1.71;83.16;101192.94;2873154;82;21080;-71
2021/11/23 04:43:02;;;;;;;3.00;2.35;;;;;;;1.66;83.37;101189.61;2872980;82;21049;-72
2021/11/23 04:47:04;;;;;;;3.15;2.00;;;;;;;1.68;83.46;101196.97;2872709;82;21018;-71
2021/11/23 04:51:05;;;;;;;2.27;1.98;;;;;;;1.69;83.33;101190.81;2873195;82;20970;-71
2021/11/23 04:55:09;;;;;;;1.85;1.70;;;;;;;1.70;83.30;101179.42;2873137;82;21042;-71
2021/11/23 04:59:11;;;;;;;2.65;1.87;;;;;;;1.70;83.20;101176.80;2830680;83;21058;-72
2021/11/23 05:03:13;;;;;;;3.87;1.92;;;;;;;1.72;83.14;101171.05;2873998;82;21022;-72
2021/11/23 05:07:15;;;;;;;3.05;1.82;;;;;;;1.72;83.01;101171.05;2873943;82;21014;-77
2021/11/23 05:11:17;;;;;;;1.98;1.22;;;;;;;1.74;82.58;101174.48;2876602;82;21069;-76
2021/11/23 05:15:19;;;;;;;2.72;1.65;;;;;;;1.80;82.13;101179.56;2876635;82;21009;-78
2021/11/23 05:19:21;;;;;;;4.05;2.42;;;;;;;1.89;81.95;101176.23;2876931;82;21053;-77
2021/11/23 05:23:22;;;;;;;1.82;1.42;;;;;;;1.91;81.59;101175.72;2876018;82;20986;-76
2021/11/23 05:27:24;;;;;;;2.08;1.62;;;;;;;1.96;81.29;101179.05;2864233;81;20991;-77
2021/11/23 05:31:26;;;;;;;2.50;1.85;;;;;;;2.00;80.84;101174.98;2911219;82;21018;-77
2021/11/23 05:35:27;;;;;;;2.10;1.22;;;;;;;2.04;80.84;101168.31;2855790;83;21029;-77
2021/11/23 05:39:30;;;;;;;2.60;1.40;;;;;;;2.03;80.56;101171.41;2855022;83;20963;-76
2021/11/23 05:43:32;;;;;;;1.65;1.10;;;;;;;2.00;80.20;101162.33;2855093;83;20985;-76
2021/11/23 05:47:35;;;;;;;2.08;1.20;;;;;;;1.99;80.37;101163.23;2853247;83;20990;-75
2021/11/23 05:51:37;;;;;;;2.00;1.77;;;;;;;2.01;80.20;101150.92;2853927;82;21066;-76
2021/11/23 05:55:38;;;;;;;3.55;1.35;;;;;;;2.02;80.26;101150.02;2853993;83;21084;-76
2021/11/23 05:59:40;;;;;;;2.27;1.33;;;;;;;1.99;80.26;101150.95;2853814;82;21057;-77
2021/11/23 06:03:43;;;;;;;2.83;2.22;;;;;;;2.03;80.50;101152.17;2853659;83;20990;-76
2021/11/23 06:07:44;;;;;;;1.65;1.37;;;;;;;2.01;80.43;101153.55;2853870;83;20990;-76
2021/11/23 06:11:46;;;;;;;2.45;1.20;;;;;;;1.95;80.49;101148.47;2853747;83;21006;-76
2021/11/23 06:15:48;;;;;;;1.05;0.75;;;;;;;1.98;80.40;101152.34;2853259;83;21002;-76
2021/11/23 06:19:50;;;;;;;2.12;1.25;;;;;;;2.00;80.17;101150.52;2854055;83;21010;-77
2021/11/23 06:23:54;;;;;;;2.02;1.10;;;;;;;2.03;79.92;101149.55;2853603;83;21029;-75
2021/11/23 06:27:56;;;;;;;2.83;0.90;;;;;;;2.06;79.61;101152.06;2867350;81;21536;-75
2021/11/23 06:31:59;;;;;;;2.77;1.60;;;;;;;2.12;79.47;101146.64;2855663;82;30533;-76
2021/11/23 06:36:00;;;;;;;1.72;1.00;;;;;;;2.15;79.22;101145.22;2880780;82;21084;-77
2021/11/23 06:40:05;;;;;;;2.10;1.30;;;;;;;2.21;78.98;101150.73;2881222;82;21680;-76
2021/11/23 06:44:08;;;;;;;2.25;1.30;;;;;;;2.24;79.02;101148.84;2881374;82;20981;-76
2021/11/23 06:48:10;;;;;;;1.82;1.42;;;;;;;2.27;79.22;101150.08;2881216;82;21004;-77
2021/11/23 06:52:12;;;;;;;6.10;2.00;;;;;;;2.28;79.33;101153.10;2881300;82;21001;-76
2021/11/23 06:56:15;;;;;;;3.72;2.05;;;;;;;2.27;79.69;101154.02;2881576;82;20942;-76
2021/11/23 07:00:17;;;;;;;4.22;1.60;;;;;;;2.28;79.73;101157.48;2881880;82;20997;-76
2021/11/23 07:04:18;;;;;;;6.45;2.77;;;;;;;2.30;79.86;101166.16;2881713;82;21061;-76
2021/11/23 07:08:20;;;;;;;6.97;3.08;;;;;;;2.34;79.88;101165.14;2881632;82;21008;-77
2021/11/23 07:12:22;;;;;;;3.98;2.27;;;;;;;2.40;79.88;101170.21;2881786;82;21064;-77
2021/11/23 07:16:24;;;;;;;8.55;3.10;;;;;;;2.48;79.59;101171.27;2881858;82;21035;-77
2021/11/23 07:20:25;;;;;;;2.45;1.95;;;;;;;2.53;79.55;101176.34;2926608;81;20999;-76
2021/11/23 07:24:27;;;;;;;6.45;2.25;;;;;;;2.61;79.56;101169.08;2921870;81;21009;-76
2021/11/23 07:28:29;;;;;;;4.53;2.55;;;;;;;2.71;79.51;101170.45;2973124;78;21311;-73
2021/11/23 07:32:31;;;;;;;5.05;1.95;;;;;;;2.80;79.01;101171.06;2973694;80;21041;-76
2021/11/23 07:36:33;;;;;;;5.60;3.15;;;;;;;2.93;79.07;101168.38;2973666;80;21033;-75
2021/11/23 07:40:35;;;;;;;5.95;3.42;;;;;;;3.03;79.13;101161.02;2974077;80;21044;-77
2021/11/23 07:44:37;;;;;;;10.48;4.87;;;;;;;3.14;78.85;101164.13;2939553;80;21252;-77
2021/11/23 07:48:38;;;;;;;9.38;4.33;;;;;;;3.26;78.87;101173.34;2882674;82;21030;-76
2021/11/23 07:52:40;;;;;;;8.90;4.75;;;;;;;3.37;78.59;101177.36;2877364;82;20986;-78
2021/11/23 07:56:43;;;;;;;8.68;4.08;;;;;;;3.49;78.88;101196.60;2877265;82;21041;-76
2021/11/23 08:00:46;;;;;;;5.03;2.90;;;;;;;3.56;78.38;101195.92;2883265;82;21034;-76
2021/11/23 08:04:47;;;;;;;8.38;4.30;;;;;;;3.63;78.78;101187.34;2877591;82;20959;-78
2021/11/23 08:08:49;;;;;;;9.10;3.77;;;;;;;3.78;78.79;101181.48;2883603;82;21054;-74
2021/11/23 08:12:51;;;;;;;11.10;5.15;;;;;;;3.88;79.28;101172.77;2883146;82;20983;-77
2021/11/23 08:16:54;;;;;;;10.75;4.75;;;;;;;3.99;79.09;101166.60;2883391;82;20991;-77
2021/11/23 08:20:56;;;;;;;3.22;3.00;;;;;;;4.09;79.62;101153.92;2883281;82;21030;-76
2021/11/23 08:24:57;;;;;;;8.50;4.00;;;;;;;4.21;79.46;101170.16;2883897;80;21452;-77
2021/11/23 08:28:59;;;;;;;5.33;4.28;;;;;;;4.37;79.65;101183.09;2905371;81;21026;-76
2021/11/23 08:33:01;;;;;;;7.17;4.70;;;;;;;4.46;80.16;101179.22;2918459;81;21015;-76
2021/11/23 08:37:03;;;;;;;10.60;4.35;;;;;;;4.75;80.76;101179.74;2918632;81;21031;-77
2021/11/23 08:41:05;;;;;;;9.55;4.80;;;;;;;4.91;80.40;101185.20;2918548;80;20987;-78
2021/11/23 08:45:09;;;;;;;8.90;4.40;;;;;;;5.00;79.82;101171.63;2918513;81;21062;-77
2021/11/23 08:49:12;;;;;;;10.32;5.25;;;;;;;5.12;80.05;101172.86;2918676;81;21006;-74
2021/11/23 08:53:14;;;;;;;12.43;4.95;;;;;;;5.18;80.17;101173.50;2918439;81;21046;-74
2021/11/23 08:57:15;;;;;;;10.10;4.75;;;;;;;5.21;80.27;101172.91;2918892;81;21082;-76
2021/11/23 09:01:21;;;;;;;6.62;3.75;;;;;;;5.35;80.07;101183.31;2918544;81;21015;-77
2021/11/23 09:05:23;;;;;;;5.58;4.87;;;;;;;5.42;80.66;101186.05;2918699;81;21394;-77
2021/11/23 09:09:27;;;;;;;9.50;5.47;;;;;;;5.58;80.16;101192.33;2918717;81;21019;-77
2021/11/23 09:13:28;;;;;;;14.35;7.97;;;;;;;5.75;80.69;101205.66;2918401;81;21299;-76
2021/11/23 09:17:30;;;;;;;8.35;5.17;;;;;;;5.90;80.53;101185.63;2918556;81;20979;-79
2021/11/23 09:21:31;;;;;;;10.95;5.30;;;;;;;6.08;80.40;101181.25;2918626;81;21015;-78
2021/11/23 09:25:33;;;;;;;8.78;5.00;;;;;;;6.19;80.33;101188.66;2918750;81;20975;-76
2021/11/23 09:29:35;;;;;;;4.05;3.65;;;;;;;6.37;80.76;101203.61;2911089;81;21007;-77
2021/11/23 09:33:37;;;;;;;3.72;2.40;;;;;;;6.42;80.83;101199.42;2908696;82;21006;-73
2021/11/23 09:37:39;;;;;;;4.28;3.12;;;;;;;6.38;81.09;101197.39;2908528;80;20996;-74
2021/11/23 09:41:41;;;;;;;5.45;2.60;;;;;;;6.44;81.35;101202.84;2908247;82;21035;-75
2021/11/23 09:45:43;;;;;;;7.60;3.30;;;;;;;6.42;81.49;101200.74;2908084;82;21004;-77
2021/11/23 09:49:44;;;;;;;14.03;3.02;;;;;;;6.51;81.99;101191.02;2908309;82;21082;-76
2021/11/23 09:53:46;;;;;;;12.73;4.22;;;;;;;6.62;81.57;101182.54;2908314;82;20988;-74
2021/11/23 09:57:48;;;;;;;6.42;2.95;;;;;;;6.70;82.03;101184.34;2908922;79;21239;-73
2021/11/23 10:02:00;;;;;;;5.15;3.35;;;;;;;6.65;80.95;101175.77;2908867;82;21026;-74
2021/11/23 10:06:11;;;;;;;6.33;3.15;;;;;;;6.61;83.25;101195.38;2908657;82;20999;-76
2021/11/23 10:10:18;;;;;;;19.25;3.62;;;;;;;6.52;82.53;101186.60;2908664;82;20992;-78
2021/11/23 10:14:20;;;;;;;5.25;3.33;;;;;;;6.43;83.44;101183.47;2908278;82;20976;-76
2021/11/23 10:18:24;;;;;;;7.75;3.83;;;;;;;6.46;84.54;101194.81;2908393;82;21074;-78
2021/11/23 10:22:38;;;;;;;6.97;4.10;;;;;;;6.35;85.22;101197.55;2908355;82;20996;-78
2021/11/23 10:26:40;;;;;;;8.85;3.90;;;;;;;6.27;87.32;101208.94;2908323;82;21535;-78
2021/11/23 10:30:45;;;;;;;7.90;3.92;;;;;;;6.00;89.56;101185.11;2908011;81;21031;-75
2021/11/23 10:34:48;;;;;;;5.28;3.02;;;;;;;5.91;90.49;101188.17;2908040;82;21028;-74
2021/11/23 10:38:50;;;;;;;6.60;4.15;;;;;;;5.88;90.83;101201.52;2908249;82;21046;-75
2021/11/23 10:43:04;;;;;;;9.70;4.92;;;;;;;5.81;90.79;101193.03;2908641;82;20984;-74
2021/11/23 10:47:07;;;;;;;5.87;3.90;;;;;;;5.93;91.43;101205.28;2909146;82;20968;-76
2021/11/23 10:51:12;;;;;;;4.25;3.10;;;;;;;5.95;91.10;101184.92;2908673;82;21046;-77
2021/11/23 10:55:30;;;;;;;7.75;3.62;;;;;;;5.91;91.18;101182.05;2907924;82;21039;-76
2021/11/23 10:59:33;;;;;;;4.65;2.80;;;;;;;5.77;91.09;101188.84;2908434;82;21075;-78
2021/11/23 11:03:35;;;;;;;9.05;4.85;;;;;;;5.70;91.31;101196.19;2908478;82;21039;-76
2021/11/23 11:07:38;;;;;;;12.53;3.90;;;;;;;5.64;92.77;101187.69;2908423;82;20960;-77
2021/11/23 11:11:39;;;;;;;6.55;3.80;;;;;;;5.62;93.53;101187.78;2908559;82;21031;-77
2021/11/23 11:15:45;;;;;;;11.00;4.17;;;;;;;5.63;93.65;101185.98;2908440;82;21016;-74
2021/11/23 11:19:50;;;;;;;9.48;5.25;;;;;;;5.64;93.49;101194.29;2908838;82;21015;-75
2021/11/23 11:23:57;;;;;;;5.43;4.20;;;;;;;5.79;92.55;101179.50;2909026;82;21012;-76
2021/11/23 11:27:55;;;;;;;4.53;3.27;;;;;;;5.96;92.96;101187.48;2907505;81;21040;-76
2021/11/23 11:31:59;;;;;;;5.90;5.15;;;;;;;5.94;91.84;101196.42;2908739;82;20996;-77
2021/11/23 11:36:01;;;;;;;8.88;4.40;;;;;;;6.06;91.82;101195.84;2908530;82;21051;-75
2021/11/23 11:40:05;;;;;;;6.62;4.67;;;;;;;5.93;91.68;101199.99;2908322;80;21015;-75
2021/11/23 11:44:20;;;;;;;11.28;4.45;;;;;;;5.86;92.19;101174.34;2908290;82;20992;-75
2021/11/23 11:48:44;;;;;;;8.20;4.10;;;;;;;5.78;92.45;101173.83;2908078;82;21039;-77
2021/11/23 11:53:01;;;;;;;6.22;4.08;;;;;;;5.79;92.44;101188.30;2908523;82;20991;-76
2021/11/23 11:57:03;;;;;;;7.08;4.72;;;;;;;5.69;92.54;101193.16;2908604;82;21015;-75
2021/11/23 12:01:24;;;;;;;6.12;4.62;;;;;;;5.82;92.66;101191.27;2908077;81;20944;-77
2021/11/23 12:05:26;;;;;;;4.83;3.58;;;;;;;5.74;92.62;101182.83;2908935;82;21011;-77
2021/11/23 12:09:50;;;;;;;6.50;4.78;;;;;;;5.67;93.10;101171.70;2881284;82;20984;-77
2021/11/23 12:14:02;;;;;;;9.63;6.53;;;;;;;5.66;92.90;101184.51;2908871;82;21062;-76
2021/11/23 12:18:24;;;;;;;8.73;4.60;;;;;;;5.70;92.67;101190.06;2908541;82;21011;-77
2021/11/23 12:22:26;;;;;;;6.42;4.40;;;;;;;5.73;92.87;101184.63;2908456;81;20992;-77
2021/11/23 12:26:37;;;;;;;5.25;4.12;;;;;;;5.70;92.17;101182.98;2908617;82;20984;-75
2021/11/23 12:30:39;;;;;;;5.97;4.70;;;;;;;5.73;92.05;101180.67;2919508;81;21039;-75
2021/11/23 12:34:54;;;;;;;8.60;7.70;;;;;;;5.88;92.52;101177.76;2922524;81;21059;-75
2021/11/23 12:39:15;;;;;;;9.80;5.78;;;;;;;5.86;92.41;101183.10;2922425;81;20990;-73
2021/11/23 12:43:17;;;;;;;5.50;4.35;;;;;;;5.90;91.92;101164.50;2922282;81;20917;-75
2021/11/23 12:47:21;;;;;;;5.15;4.72;;;;;;;5.82;91.77;101163.06;2922325;81;21031;-75
2021/11/23 12:51:32;;;;;;;6.15;3.92;;;;;;;5.89;91.86;101174.64;2922439;81;21014;-77
2021/11/23 12:55:35;;;;;;;7.12;3.85;;;;;;;6.04;91.74;101173.09;2922252;81;21015;-75
2021/11/23 12:59:53;;;;;;;8.58;5.05;;;;;;;6.20;91.48;101168.78;2921692;81;20987;-76
2021/11/23 13:04:01;;;;;;;8.73;4.87;;;;;;;6.11;90.90;101184.61;2921947;81;21062;-77
2021/11/23 13:08:10;;;;;;;8.25;5.10;;;;;;;6.18;90.88;101186.95;2922613;81;20980;-75
2021/11/23 13:12:12;;;;;;;5.80;3.83;;;;;;;6.07;91.05;101188.31;2922636;81;20979;-75
2021/11/23 13:16:14;;;;;;;8.30;6.50;;;;;;;5.99;91.79;101189.13;2922228;81;21035;-76
2021/11/23 13:20:43;;;;;;;6.33;5.37;;;;;;;5.99;92.47;101193.09;2922228;81;20967;-77
2021/11/23 13:24:45;;;;;;;11.10;7.12;;;;;;;6.04;92.68;101199.51;2922566;81;20999;-76
2021/11/23 13:29:05;;;;;;;12.30;6.67;;;;;;;6.04;93.16;101196.39;2922380;81;20972;-74
2021/11/23 13:33:19;;;;;;;7.70;6.20;;;;;;;6.07;93.25;101184.83;2922742;81;20917;-75
2021/11/23 13:37:21;;;;;;;10.15;6.50;;;;;;;6.11;93.75;101198.27;2922239;81;20980;-76
2021/11/23 13:41:36;;;;;;;12.68;7.03;;;;;;;6.10;93.55;101201.39;2922195;81;20948;-75
2021/11/23 13:45:38;;;;;;;9.35;7.65;;;;;;;6.11;93.61;101204.43;2922717;81;20968;-74
2021/11/23 13:49:44;;;;;;;10.38;9.20;;;;;;;6.01;93.73;101204.47;2922415;80;20995;-76
2021/11/23 13:54:03;;;;;;;11.97;9.35;;;;;;;6.05;94.19;101202.06;2920255;81;21014;-72
2021/11/23 13:58:10;;;;;;;12.78;9.00;;;;;;;6.17;94.13;101210.34;2942877;80;21078;-72
2021/11/23 14:02:11;;;;;;;10.82;8.35;;;;;;;6.23;93.56;101200.33;2922940;80;21049;-73
2021/11/23 14:06:13;;;;;;;9.40;7.05;;;;;;;6.28;93.04;101196.98;2894574;81;21064;-73
2021/11/23 14:10:32;;;;;;;8.28;7.17;;;;;;;6.39;92.70;101216.76;2917210;80;21688;-74
2021/11/23 14:14:56;;;;;;;10.43;7.28;;;;;;;6.41;92.75;101205.16;2965562;79;21035;-72
2021/11/23 14:19:09;;;;;;;14.87;9.75;;;;;;;6.45;92.79;101211.61;2966553;80;21066;-75
2021/11/23 14:23:39;;;;;;;9.70;8.10;;;;;;;6.41;93.38;101212.25;2967426;80;21043;-75
2021/11/23 14:27:58;;;;;;;10.18;9.13;;;;;;;6.27;94.95;101211.58;2967651;80;21032;-73
2021/11/23 14:32:00;;;;;;;13.25;10.20;;;;;;;6.32;94.64;101216.20;2917523;81;21060;-71
2021/11/23 14:36:02;;;;;;;14.13;10.55;;;;;;;6.41;94.49;101211.77;2919133;81;21032;-70
2021/11/23 14:40:06;;;;;;;13.40;11.03;;;;;;;6.46;94.50;101220.80;2919191;81;21008;-71
2021/11/23 14:44:09;;;;;;;15.40;11.85;;;;;;;6.55;94.00;101212.87;2918895;81;21026;-72
2021/11/23 14:48:11;;;;;;;16.10;11.28;;;;;;;6.63;93.69;101214.66;2919699;81;21085;-71
2021/11/23 14:52:14;;;;;;;14.98;11.10;;;;;;;6.77;93.08;101215.75;2919409;81;21026;-71
2021/11/23 14:56:16;;;;;;;16.20;12.70;;;;;;;6.74;93.28;101219.39;2919227;81;21037;-71
2021/11/23 15:00:20;;;;;;;12.13;10.82;;;;;;;6.74;93.40;101218.08;2919194;81;21006;-72
2021/11/23 15:04:21;;;;;;;13.55;11.22;;;;;;;6.77;93.29;101219.23;2919323;81;21740;-71
2021/11/23 15:08:23;;;;;;;13.05;10.98;;;;;;;6.84;93.11;101218.45;2919776;81;21041;-72
2021/11/23 15:12:25;;;;;;;12.98;9.85;;;;;;;6.84;93.29;101218.45;2920719;80;21018;-71
2021/11/23 15:16:26;;;;;;;12.30;10.48;;;;;;;6.76;93.62;101220.66;2971043;80;21062;-71
2021/11/23 15:20:28;;;;;;;12.98;10.80;;;;;;;6.73;93.90;101211.56;2970783;79;21018;-72
2021/11/23 15:24:31;;;;;;;11.75;10.55;;;;;;;6.64;94.50;101209.75;2970677;80;21057;-71
2021/11/23 15:28:33;;;;;;;11.93;10.18;;;;;;;6.68;94.47;101219.27;2969768;80;21018;-71
2021/11/23 15:32:35;;;;;;;12.30;9.83;;;;;;;6.70;94.56;101220.48;2956205;80;21463;-71
2021/11/23 15:36:37;;;;;;;10.82;9.73;;;;;;;6.71;94.54;101224.39;2956283;79;20999;-72
2021/11/23 15:40:39;;;;;;;14.20;10.80;;;;;;;6.73;94.52;101224.78;2956480;80;21022;-72
2021/11/23 15:44:41;;;;;;;17.82;12.55;;;;;;;6.75;94.26;101225.07;2924514;80;21035;-72
2021/11/23 15:48:43;;;;;;;18.70;12.82;;;;;;;6.76;94.24;101214.88;2904476;80;21035;-72
2021/11/23 15:52:46;;;;;;;16.45;12.07;;;;;;;6.74;94.39;101214.59;2904148;81;21646;-71
2021/11/23 15:56:48;;;;;;;21.50;13.08;;;;;;;6.71;94.33;101216.46;3001264;78;21065;-72
2021/11/23 16:00:49;;;;;;;16.85;12.53;;;;;;;6.74;94.17;101222.52;2937081;79;21042;-71
2021/11/23 16:04:51;;;;;;;12.80;10.25;;;;;;;6.81;93.77;101225.23;2924247;81;21061;-72
2021/11/23 16:08:53;;;;;;;16.87;10.98;;;;;;;6.80;93.95;101227.03;2990661;78;20994;-71
2021/11/23 16:12:55;;;;;;;15.98;11.88;;;;;;;6.82;94.15;101217.23;2877373;82;21009;-71
2021/11/23 16:16:56;;;;;;;19.30;13.28;;;;;;;6.79;94.42;101218.72;2877701;82;21053;-71
2021/11/23 16:20:59;;;;;;;16.55;12.95;;;;;;;6.80;94.25;101220.88;2852877;83;21050;-70
2021/11/23 16:25:02;;;;;;;17.98;13.68;;;;;;;6.78;93.96;101232.88;2864563;82;21030;-71
2021/11/23 16:29:10;;;;;;;18.27;12.23;;;;;;;6.81;94.03;101239.33;2881999;81;21066;-71
2021/11/23 16:33:08;;;;;;;14.23;11.45;;;;;;;6.81;94.35;101241.09;2906370;81;21015;-71
2021/11/23 16:37:09;;;;;;;17.85;14.18;;;;;;;6.85;94.51;101233.39;2845545;83;21031;-70
2021/11/23 16:41:11;;;;;;;20.37;14.20;;;;;;;6.81;94.64;101238.00;2906720;81;21030;-70
2021/11/23 16:45:13;;;;;;;16.80;14.68;;;;;;;6.87;94.71;101235.48;2926663;80;21050;-70
2021/11/23 16:49:16;;;;;;;16.60;14.28;;;;;;;6.86;94.42;101241.71;2832529;83;21038;-71
2021/11/23 16:53:18;;;;;;;18.00;13.05;;;;;;;6.94;94.10;101243.52;2841273;82;21034;-71
2021/11/23 16:57:20;;;;;;;21.68;14.40;;;;;;;6.97;93.58;101247.77;2939842;80;21042;-71
2021/11/23 17:01:22;;;;;;;15.40;13.00;;;;;;;7.04;93.01;101252.28;2910089;82;21018;-71
2021/11/23 17:05:23;;;;;;;17.90;11.78;;;;;;;7.04;92.92;101254.48;2860125;82;21038;-71
2021/11/23 17:09:29;;;;;;;18.75;12.30;;;;;;;7.02;93.01;101252.84;2945198;79;21032;-71
2021/11/23 17:13:30;;;;;;;15.35;10.53;;;;;;;6.97;93.25;101249.97;2874406;82;21009;-71
2021/11/23 17:17:32;;;;;;;14.10;11.88;;;;;;;6.99;93.28;101250.74;2841413;83;21094;-71
2021/11/23 17:21:34;;;;;;;13.90;12.03;;;;;;;7.03;93.09;101250.58;2841068;83;21095;-71
2021/11/23 17:25:35;;;;;;;16.25;11.05;;;;;;;7.05;93.13;101261.94;2841083;83;21058;-71
2021/11/23 17:29:39;;;;;;;21.07;11.70;;;;;;;7.00;93.29;101265.68;2851414;82;21042;-71
2021/11/23 17:33:40;;;;;;;14.83;10.95;;;;;;;7.03;93.16;101259.39;2967828;79;21072;-70
2021/11/23 17:37:42;;;;;;;13.18;9.68;;;;;;;7.06;93.16;101261.87;2857217;83;21575;-71
2021/11/23 17:41:44;;;;;;;18.40;10.75;;;;;;;7.04;93.32;101268.16;2858312;82;21044;-71
2021/11/23 17:45:46;;;;;;;14.28;10.65;;;;;;;7.09;93.41;101270.13;2898504;81;21021;-70
2021/11/23 17:49:54;;;;;;;13.53;10.45;;;;;;;7.10;93.25;101276.64;2900854;81;21061;-70
2021/11/23 17:53:56;;;;;;;13.10;9.58;;;;;;;7.17;92.93;101282.48;2888289;81;21010;-70
2021/11/23 17:57:59;;;;;;;13.32;9.65;;;;;;;7.18;93.07;101282.03;2877124;82;21030;-70
2021/11/23 18:02:00;;;;;;;12.30;9.15;;;;;;;7.17;93.05;101281.16;2894035;82;21019;-70
2021/11/23 18:06:04;;;;;;;10.82;9.73;;;;;;;7.21;92.83;101273.44;2894096;82;21027;-71
2021/11/23 18:10:07;;;;;;;13.00;9.90;;;;;;;7.17;92.83;101277.19;2894611;82;21023;-70
2021/11/23 18:14:09;;;;;;;14.40;11.25;;;;;;;7.12;92.97;101275.26;2902303;80;21019;-71
2021/11/23 18:18:14;;;;;;;12.40;10.32;;;;;;;7.04;93.15;101276.97;2927302;80;20974;-68
2021/11/23 18:22:16;;;;;;;13.37;11.50;;;;;;;7.08;92.91;101277.67;2936444;80;20979;-71
2021/11/23 18:26:18;;;;;;;14.95;10.63;;;;;;;7.08;92.82;101274.55;2906064;81;21034;-69
2021/11/23 18:30:21;;;;;;;15.25;10.45;;;;;;;7.11;92.82;101276.19;2903257;81;21086;-75
2021/11/23 18:34:25;;;;;;;17.10;14.78;;;;;;;7.15;92.85;101284.35;2849195;82;21026;-74
2021/11/23 18:38:30;;;;;;;17.75;15.50;;;;;;;7.14;92.98;101279.52;2868718;82;21089;-75
2021/11/23 18:42:31;;;;;;;19.48;15.48;;;;;;;7.13;93.18;101276.97;2866652;82;21019;-74
2021/11/23 18:46:33;;;;;;;23.25;15.95;;;;;;;7.17;93.21;101275.87;2854807;83;20998;-75
2021/11/23 18:50:35;;;;;;;17.82;13.95;;;;;;;7.17;93.21;101278.52;2855066;83;21046;-75
2021/11/23 18:54:37;;;;;;;14.90;12.33;;;;;;;7.12;93.26;101272.13;2854611;82;21033;-74
2021/11/23 18:58:38;;;;;;;19.65;13.38;;;;;;;7.13;93.32;101279.61;2853783;82;21063;-75